Time;durP1;ratioP1;P1;durP2;ratioP2;P2;SDS_P1;SDS_P2;PMS_P1;PMS_P2;Temp;Humidity;BMP_temperature;BMP_pressure;BME280_temperature;BME280_humidity;BME280_pressure;Samples;Min_cycle;Max_cycle;Signal;HPM_P1;HPM_P2
2021/12/03 00:01:18;;;;;;;12.55;6.57;;;-8.10;99.90;;;;;;5011838;28;20045;-82
2021/12/03 00:03:47;;;;;;;11.57;6.15;;;-7.60;99.90;;;;;;5030495;28;20144;-82
2021/12/03 00:06:15;;;;;;;17.02;6.32;;;-7.90;99.90;;;;;;5023058;28;20072;-81
2021/12/03 00:08:43;;;;;;;13.30;5.93;;;-7.30;99.90;;;;;;5031031;28;20057;-81
2021/12/03 00:11:12;;;;;;;14.25;6.70;;;-8.10;99.90;;;;;;5028708;28;20132;-81
2021/12/03 00:13:43;;;;;;;15.35;6.15;;;-8.20;99.90;;;;;;5030589;28;20053;-82
2021/12/03 00:16:13;;;;;;;13.90;7.03;;;-8.20;99.90;;;;;;5030720;28;20045;-80
2021/12/03 00:18:42;;;;;;;16.45;7.25;;;-8.10;99.90;;;;;;5011611;28;20053;-81
2021/12/03 00:21:11;;;;;;;17.20;7.50;;;-8.30;99.90;;;;;;5012398;28;20064;-81
2021/12/03 00:23:39;;;;;;;17.38;6.80;;;-8.20;99.90;;;;;;5030553;28;20053;-81
2021/12/03 00:26:09;;;;;;;15.68;6.68;;;-8.60;99.90;;;;;;5012327;28;20054;-81
2021/12/03 00:28:37;;;;;;;19.75;6.78;;;-8.70;99.90;;;;;;5028144;28;20049;-81
2021/12/03 00:31:08;;;;;;;19.85;7.68;;;-8.10;99.90;;;;;;5028780;28;20041;-81
2021/12/03 00:33:36;;;;;;;21.20;7.43;;;-8.80;99.90;;;;;;5030017;28;20061;-82
2021/12/03 00:36:07;;;;;;;18.90;7.75;;;-9.60;99.90;;;;;;5029809;28;20055;-82
2021/12/03 00:38:38;;;;;;;21.33;7.00;;;-9.10;99.90;;;;;;5029371;28;20050;-81
2021/12/03 00:41:08;;;;;;;18.00;5.65;;;-8.90;99.90;;;;;;5028603;28;20148;-82
2021/12/03 00:43:39;;;;;;;17.08;7.05;;;-9.60;99.90;;;;;;4996456;28;20081;-82
2021/12/03 00:46:10;;;;;;;13.05;6.53;;;-9.10;99.90;;;;;;5029276;28;20057;-81
2021/12/03 00:48:38;;;;;;;17.73;7.53;;;-9.10;99.90;;;;;;5029690;28;20049;-81
2021/12/03 00:51:08;;;;;;;20.52;6.55;;;-9.20;99.90;;;;;;5022899;28;20148;-80
2021/12/03 00:53:35;;;;;;;17.95;6.97;;;-9.80;99.90;;;;;;5029530;28;20143;-81
2021/12/03 00:56:04;;;;;;;17.77;6.38;;;-9.50;99.90;;;;;;5028663;28;20074;-81
2021/12/03 00:58:31;;;;;;;17.60;7.50;;;-9.60;99.90;;;;;;5031207;28;20077;-80
2021/12/03 01:00:59;;;;;;;19.02;7.30;;;-8.90;99.90;;;;;;5029987;28;20045;-81
2021/12/03 01:03:29;;;;;;;16.17;6.75;;;-9.80;99.90;;;;;;5012797;28;20050;-81
2021/12/03 01:05:57;;;;;;;24.08;7.72;;;-10.00;99.90;;;;;;5029092;28;20111;-80
2021/12/03 01:08:24;;;;;;;17.67;7.40;;;-9.50;99.90;;;;;;5029113;28;20568;-81
2021/12/03 01:10:52;;;;;;;17.38;7.22;;;-8.90;99.90;;;;;;5029900;28;20414;-80
2021/12/03 01:13:20;;;;;;;20.33;6.53;;;-10.00;99.90;;;;;;5028315;28;20104;-81
2021/12/03 01:15:47;;;;;;;30.52;7.70;;;-9.80;99.90;;;;;;5029157;28;20120;-80
2021/12/03 01:18:16;;;;;;;18.45;7.70;;;-9.00;99.90;;;;;;5029792;28;20042;-80
2021/12/03 01:20:45;;;;;;;19.77;8.23;;;-8.60;99.90;;;;;;5029655;28;20049;-80
2021/12/03 01:23:13;;;;;;;19.38;7.70;;;-9.40;99.90;;;;;;5029072;28;20046;-80
2021/12/03 01:25:42;;;;;;;20.45;7.32;;;-9.30;99.90;;;;;;5028105;28;20050;-80
2021/12/03 01:28:11;;;;;;;21.55;8.20;;;-9.10;99.90;;;;;;5012230;28;20041;-80
2021/12/03 01:30:39;;;;;;;22.38;8.35;;;-9.50;99.90;;;;;;5010304;28;20045;-80
2021/12/03 01:33:07;;;;;;;35.60;10.98;;;-9.10;99.90;;;;;;5027103;28;20042;-81
2021/12/03 01:35:35;;;;;;;26.17;8.75;;;-9.60;99.90;;;;;;5029775;28;20695;-81
2021/12/03 01:38:05;;;;;;;22.05;8.10;;;-10.10;99.90;;;;;;5028977;28;20056;-81
2021/12/03 01:40:36;;;;;;;21.08;8.43;;;-9.70;99.90;;;;;;5028418;28;20049;-80
2021/12/03 01:43:06;;;;;;;21.85;9.73;;;-10.00;99.90;;;;;;5028730;28;20504;-81
2021/12/03 01:45:42;;;;;;;19.10;7.65;;;-10.00;99.90;;;;;;5028803;28;20046;-80
2021/12/03 01:48:10;;;;;;;19.30;8.35;;;-9.40;99.90;;;;;;5026885;28;20092;-80
2021/12/03 01:50:42;;;;;;;26.67;8.88;;;-10.40;99.90;;;;;;5010686;28;20061;-81
2021/12/03 01:53:14;;;;;;;28.27;8.70;;;-9.90;99.90;;;;;;5032865;28;20579;-81
2021/12/03 01:55:44;;;;;;;23.20;9.18;;;-10.00;99.90;;;;;;5014575;28;20041;-82
2021/12/03 01:58:13;;;;;;;26.58;8.35;;;-10.00;99.90;;;;;;5031507;28;20513;-80
2021/12/03 02:00:51;;;;;;;28.52;8.90;;;-9.50;99.90;;;;;;5026572;28;20205;-80
2021/12/03 02:03:21;;;;;;;23.30;8.73;;;-10.20;99.90;;;;;;5032207;28;20049;-80
2021/12/03 02:05:49;;;;;;;26.30;9.95;;;-10.10;99.90;;;;;;5032820;28;20140;-81
2021/12/03 02:08:18;;;;;;;22.15;7.95;;;-10.30;99.90;;;;;;5031383;28;20111;-80
2021/12/03 02:10:46;;;;;;;25.48;8.55;;;-10.10;99.90;;;;;;5015144;28;20429;-81
2021/12/03 02:13:15;;;;;;;27.45;10.38;;;-10.20;99.90;;;;;;5015063;28;20433;-80
2021/12/03 02:15:44;;;;;;;28.90;9.60;;;-10.30;99.90;;;;;;5032926;28;20041;-80
2021/12/03 02:18:14;;;;;;;23.98;8.60;;;-10.30;99.90;;;;;;4994990;28;20052;-80
2021/12/03 02:20:45;;;;;;;21.52;7.95;;;-10.30;99.90;;;;;;5019947;28;20070;-80
2021/12/03 02:23:14;;;;;;;25.10;9.52;;;-10.10;99.90;;;;;;5011058;28;20067;-82
2021/12/03 02:25:42;;;;;;;20.20;8.27;;;-10.30;99.90;;;;;;5032657;28;20140;-80
2021/12/03 02:28:10;;;;;;;22.00;7.72;;;-10.10;99.90;;;;;;5015253;28;20053;-80
2021/12/03 02:30:38;;;;;;;25.85;8.27;;;-10.30;99.90;;;;;;5015737;28;20056;-80
2021/12/03 02:33:06;;;;;;;22.75;8.02;;;-10.20;99.90;;;;;;5032637;28;20084;-81
2021/12/03 02:35:34;;;;;;;15.82;7.93;;;-10.20;99.90;;;;;;5029943;28;20057;-80
2021/12/03 02:38:03;;;;;;;18.98;8.60;;;-10.40;99.90;;;;;;5032604;28;20053;-82
2021/12/03 02:40:31;;;;;;;18.98;8.00;;;-9.00;99.90;;;;;;5032803;28;20059;-82
2021/12/03 02:42:58;;;;;;;19.67;7.85;;;-9.90;99.90;;;;;;5014279;28;20107;-81
2021/12/03 02:45:26;;;;;;;18.05;6.97;;;-9.80;99.90;;;;;;5030642;28;20045;-81
2021/12/03 02:47:53;;;;;;;18.45;6.88;;;-10.00;99.90;;;;;;5032014;28;20496;-81
2021/12/03 02:50:21;;;;;;;19.77;6.85;;;-9.90;99.90;;;;;;5014264;28;20084;-80
2021/12/03 02:52:52;;;;;;;16.65;6.60;;;-10.10;99.90;;;;;;5029687;28;20056;-81
2021/12/03 02:55:21;;;;;;;15.02;5.78;;;-9.90;99.90;;;;;;5030051;28;20045;-81
2021/12/03 02:57:49;;;;;;;16.90;6.28;;;-9.90;99.90;;;;;;4986296;28;20490;-80
2021/12/03 03:00:20;;;;;;;9.77;4.28;;;-9.80;99.90;;;;;;4993242;28;20387;-80
2021/12/03 03:02:48;;;;;;;11.13;5.03;;;-9.50;99.90;;;;;;5022338;28;20053;-81
2021/12/03 03:05:18;;;;;;;7.60;3.15;;;-9.60;99.90;;;;;;5026210;28;20509;-81
2021/12/03 03:07:46;;;;;;;5.55;3.00;;;-8.80;99.90;;;;;;5031874;28;20061;-80
2021/12/03 03:10:18;;;;;;;9.27;3.95;;;-9.80;99.90;;;;;;5013765;28;20510;-80
2021/12/03 03:12:48;;;;;;;11.02;3.85;;;-9.30;99.90;;;;;;4996949;28;20079;-79
2021/12/03 03:15:16;;;;;;;7.95;3.20;;;-9.20;99.90;;;;;;5013361;28;20057;-80
2021/12/03 03:17:45;;;;;;;5.63;2.97;;;-9.10;99.90;;;;;;5013960;28;20057;-81
2021/12/03 03:20:15;;;;;;;6.80;3.50;;;-8.70;99.90;;;;;;5029565;28;20053;-81
2021/12/03 03:22:44;;;;;;;7.22;3.25;;;-9.40;99.90;;;;;;5016173;28;20056;-80
2021/12/03 03:25:14;;;;;;;4.15;2.45;;;-9.00;99.90;;;;;;5031961;28;20049;-81
2021/12/03 03:27:42;;;;;;;4.72;1.98;;;-9.10;99.90;;;;;;5030784;28;20144;-82
2021/12/03 03:30:14;;;;;;;6.50;3.03;;;-9.10;99.90;;;;;;5008099;28;20564;-81
2021/12/03 03:32:43;;;;;;;5.80;3.10;;;-8.30;99.90;;;;;;5031762;28;20049;-81
2021/12/03 03:35:12;;;;;;;7.05;3.40;;;-8.80;99.90;;;;;;5013298;28;20050;-81
2021/12/03 03:37:40;;;;;;;6.43;2.85;;;-8.80;99.90;;;;;;5031437;28;20056;-81
2021/12/03 03:40:11;;;;;;;6.38;2.92;;;-9.10;99.90;;;;;;5030099;28;20068;-82
2021/12/03 03:42:39;;;;;;;10.68;3.65;;;-8.70;99.90;;;;;;5013235;28;20092;-81
2021/12/03 03:45:14;;;;;;;6.15;3.42;;;-9.30;99.90;;;;;;5013688;28;20052;-86
2021/12/03 03:47:42;;;;;;;3.85;2.35;;;-8.90;99.90;;;;;;5030046;28;20057;-85
2021/12/03 03:50:12;;;;;;;5.25;2.13;;;-8.30;99.90;;;;;;5030547;28;20098;-85
2021/12/03 03:52:41;;;;;;;6.22;3.17;;;-8.80;99.90;;;;;;5013140;28;20554;-84
2021/12/03 03:55:13;;;;;;;4.45;2.38;;;-8.70;99.90;;;;;;5030745;28;20510;-84
2021/12/03 03:57:42;;;;;;;4.10;2.55;;;-9.00;99.90;;;;;;5030330;28;20068;-85
2021/12/03 04:00:17;;;;;;;5.65;3.33;;;-9.20;99.90;;;;;;5041952;28;20158;-84
2021/12/03 04:02:46;;;;;;;5.80;2.97;;;-8.40;99.90;;;;;;5018704;28;20061;-84
2021/12/03 04:05:14;;;;;;;4.43;2.42;;;-8.50;99.90;;;;;;5012344;28;20145;-84
2021/12/03 04:07:44;;;;;;;4.18;2.45;;;-8.50;99.90;;;;;;5031091;28;20049;-89
2021/12/03 04:10:12;;;;;;;5.43;2.03;;;-8.20;99.90;;;;;;5020412;28;20562;-89
2021/12/03 04:12:40;;;;;;;5.78;2.85;;;-8.60;99.90;;;;;;5003454;28;20148;-87
2021/12/03 04:15:12;;;;;;;8.18;4.10;;;-8.20;99.90;;;;;;5027711;28;20049;-87
2021/12/03 04:17:41;;;;;;;3.00;2.28;;;-8.40;99.90;;;;;;5012284;28;20075;-86
2021/12/03 04:20:12;;;;;;;6.63;3.13;;;-8.70;99.90;;;;;;5029145;28;20506;-88
2021/12/03 04:22:40;;;;;;;6.72;2.95;;;-8.50;99.90;;;;;;5030567;28;20500;-88
2021/12/03 04:25:12;;;;;;;6.32;2.95;;;-8.40;99.90;;;;;;5012351;28;20421;-88
2021/12/03 04:27:50;;;;;;;7.63;3.15;;;-8.10;99.90;;;;;;5013325;28;20064;-90
2021/12/03 04:30:22;;;;;;;3.95;2.85;;;-8.40;99.90;;;;;;5014229;28;20052;-89
2021/12/03 04:32:50;;;;;;;5.33;2.93;;;-8.60;99.90;;;;;;4995993;28;20046;-88
2021/12/03 04:35:17;;;;;;;7.78;3.22;;;-8.50;99.90;;;;;;5021625;28;20140;-86
2021/12/03 04:37:45;;;;;;;7.07;3.17;;;-8.40;99.90;;;;;;5031228;28;20115;-85
2021/12/03 04:40:17;;;;;;;8.10;3.53;;;-8.70;99.90;;;;;;5017582;28;20426;-85
2021/12/03 04:42:45;;;;;;;5.78;3.28;;;-8.20;99.90;;;;;;5022000;28;20111;-86
2021/12/03 04:45:18;;;;;;;6.57;3.05;;;-8.50;99.90;;;;;;5011732;28;20611;-86
2021/12/03 04:47:47;;;;;;;7.20;3.00;;;-8.60;99.90;;;;;;5013671;28;20155;-92
2021/12/03 04:50:20;;;;;;;8.80;3.72;;;-8.30;99.90;;;;;;5031469;28;20064;-94
2021/12/03 04:52:53;;;;;;;5.15;3.35;;;-6.30;99.90;;;;;;5037953;28;20046;-90
2021/12/03 04:55:25;;;;;;;9.00;3.63;;;-8.40;99.90;;;;;;5049573;28;20414;-92
2021/12/03 04:57:54;;;;;;;7.78;3.45;;;-8.00;99.90;;;;;;5028840;28;20049;-86
2021/12/03 05:00:26;;;;;;;10.13;3.50;;;-8.10;99.90;;;;;;5019037;28;20536;-88
2021/12/03 05:02:56;;;;;;;6.00;3.42;;;-9.00;99.90;;;;;;5030775;28;20045;-82
2021/12/03 05:05:26;;;;;;;5.55;3.38;;;-8.80;99.90;;;;;;5029673;28;20414;-85
2021/12/03 05:07:58;;;;;;;4.40;3.17;;;-9.00;99.90;;;;;;5024504;28;20163;-86
2021/12/03 05:10:27;;;;;;;6.47;4.22;;;-8.60;99.90;;;;;;5029691;28;20076;-86
2021/12/03 05:13:00;;;;;;;9.27;3.55;;;-8.40;99.90;;;;;;5020248;28;20567;-89
2021/12/03 05:15:28;;;;;;;6.18;3.60;;;-8.50;99.90;;;;;;5030300;28;20057;-81
2021/12/03 05:17:58;;;;;;;6.70;4.18;;;-8.50;99.90;;;;;;5017854;28;20052;-89
2021/12/03 05:20:26;;;;;;;7.72;3.80;;;-8.40;99.90;;;;;;5026717;28;20139;-89
2021/12/03 05:22:54;;;;;;;9.45;3.70;;;-8.80;99.90;;;;;;5009754;28;20042;-86
2021/12/03 05:25:22;;;;;;;5.78;3.20;;;-9.40;99.90;;;;;;5027963;28;20099;-87
2021/12/03 05:27:52;;;;;;;11.07;3.35;;;-8.40;99.90;;;;;;5014300;28;20057;-88
2021/12/03 05:30:22;;;;;;;5.82;3.50;;;-8.20;99.90;;;;;;5023426;28;20081;-86
2021/12/03 05:32:50;;;;;;;8.98;4.75;;;-8.70;99.90;;;;;;5020021;28;20069;-86
2021/12/03 05:35:20;;;;;;;7.82;4.43;;;-8.60;99.90;;;;;;5015342;28;20045;-87
2021/12/03 05:37:48;;;;;;;7.45;4.07;;;-8.50;99.90;;;;;;5031625;28;20050;-87
2021/12/03 05:40:17;;;;;;;11.38;4.68;;;-8.30;99.90;;;;;;5034553;28;20131;-84
2021/12/03 05:42:47;;;;;;;8.23;4.50;;;-9.20;99.90;;;;;;5035717;28;20397;-92
2021/12/03 05:45:21;;;;;;;8.68;4.97;;;-8.70;99.90;;;;;;5013446;28;20087;-89
2021/12/03 05:47:49;;;;;;;10.02;3.67;;;-8.80;99.90;;;;;;5014136;28;20061;-83
2021/12/03 05:50:20;;;;;;;8.70;3.80;;;-9.00;99.90;;;;;;5033581;28;20052;-83
2021/12/03 05:52:49;;;;;;;13.40;5.30;;;-8.70;99.90;;;;;;5032345;28;20111;-84
2021/12/03 05:55:19;;;;;;;10.23;3.50;;;-8.70;99.90;;;;;;5012258;28;20199;-85
2021/12/03 05:57:47;;;;;;;10.07;3.70;;;-8.70;99.90;;;;;;5029967;28;20046;-88
2021/12/03 06:00:19;;;;;;;8.88;4.30;;;-8.60;99.90;;;;;;4998346;28;20056;-87
2021/12/03 06:02:47;;;;;;;5.90;3.35;;;-8.10;99.90;;;;;;5013885;28;20096;-85
2021/12/03 06:05:15;;;;;;;11.18;4.32;;;-8.60;99.90;;;;;;5032838;28;20527;-89
2021/12/03 06:07:44;;;;;;;7.00;3.20;;;-8.90;99.90;;;;;;5015549;28;20064;-87
2021/12/03 06:10:13;;;;;;;7.70;3.30;;;-6.20;99.90;;;;;;5031529;28;20053;-87
2021/12/03 06:12:43;;;;;;;7.90;4.13;;;-8.60;99.90;;;;;;5033756;28;20053;-91
2021/12/03 06:15:11;;;;;;;6.80;3.83;;;-8.60;99.90;;;;;;5033084;28;20145;-90
2021/12/03 06:17:42;;;;;;;11.30;4.35;;;-8.30;99.90;;;;;;5032548;28;20045;-93
2021/12/03 06:20:18;;;;;;;10.05;5.25;;;-8.80;99.90;;;;;;5032889;28;20045;-86
2021/12/03 06:22:49;;;;;;;9.82;3.47;;;-8.30;99.90;;;;;;5031236;28;20324;-91
2021/12/03 06:25:20;;;;;;;19.50;4.05;;;-7.70;99.90;;;;;;5014768;28;20053;-89
2021/12/03 06:27:49;;;;;;;5.60;2.90;;;-9.10;99.90;;;;;;5014886;28;20103;-86
2021/12/03 06:30:25;;;;;;;9.10;3.85;;;-8.00;99.90;;;;;;5033193;28;20037;-88
2021/12/03 06:32:55;;;;;;;5.35;2.92;;;-8.60;99.90;;;;;;5017946;28;20041;-93
2021/12/03 06:35:24;;;;;;;5.25;2.75;;;-8.60;99.90;;;;;;5038150;28;20046;-87
2021/12/03 06:37:53;;;;;;;9.15;2.63;;;-9.00;99.90;;;;;;5032056;28;20049;-84
2021/12/03 06:40:24;;;;;;;4.38;2.65;;;-6.70;99.90;;;;;;5029466;28;20140;-89
2021/12/03 06:42:55;;;;;;;7.22;2.88;;;-8.60;99.90;;;;;;5015979;28;20501;-92
2021/12/03 06:45:23;;;;;;;5.00;2.50;;;-8.50;99.90;;;;;;5006821;28;20088;-93
2021/12/03 06:47:52;;;;;;;6.68;2.72;;;-8.30;99.90;;;;;;5018133;28;20073;-88
2021/12/03 06:50:20;;;;;;;4.45;2.35;;;-8.90;99.90;;;;;;5032333;28;20062;-85
2021/12/03 06:52:53;;;;;;;8.23;2.28;;;-8.80;99.90;;;;;;5032483;28;20045;-87
2021/12/03 06:55:22;;;;;;;3.90;2.25;;;-8.90;99.90;;;;;;5035041;28;20057;-89
2021/12/03 06:57:49;;;;;;;6.18;2.75;;;-9.20;99.90;;;;;;4970124;28;20064;-90
2021/12/03 07:00:18;;;;;;;3.33;2.40;;;-8.90;99.90;;;;;;5019494;28;20049;-90
2021/12/03 07:02:45;;;;;;;7.28;3.15;;;-6.90;99.90;;;;;;5036986;28;20489;-90
2021/12/03 07:05:14;;;;;;;5.60;2.60;;;-8.70;99.90;;;;;;4998860;28;20045;-88
2021/12/03 07:07:42;;;;;;;5.63;2.25;;;-8.70;99.90;;;;;;5032820;28;20038;-89
2021/12/03 07:10:10;;;;;;;4.50;2.67;;;-9.10;99.90;;;;;;5033427;28;20076;-85
2021/12/03 07:12:40;;;;;;;8.27;3.03;;;-8.70;99.90;;;;;;5012345;28;20056;-85
2021/12/03 07:15:08;;;;;;;5.25;2.78;;;-8.40;99.90;;;;;;5030012;28;20133;-88
2021/12/03 07:17:36;;;;;;;8.07;3.08;;;-8.50;99.90;;;;;;5013810;28;20456;-88
2021/12/03 07:20:08;;;;;;;7.85;2.83;;;-8.50;99.90;;;;;;5027993;28;20056;-87
2021/12/03 07:22:36;;;;;;;6.13;3.33;;;-8.80;99.90;;;;;;5021378;28;20133;-90
2021/12/03 07:25:05;;;;;;;5.50;3.00;;;-8.50;99.90;;;;;;5023819;28;20137;-88
2021/12/03 07:27:33;;;;;;;9.10;3.47;;;-8.60;99.90;;;;;;5021756;28;20207;-89
2021/12/03 07:30:05;;;;;;;9.75;3.78;;;-9.00;99.90;;;;;;5024690;28;20053;-89
2021/12/03 07:32:32;;;;;;;17.88;5.28;;;-8.10;99.90;;;;;;5024451;28;20083;-90
2021/12/03 07:35:00;;;;;;;5.95;3.55;;;-8.40;99.90;;;;;;5022719;28;20497;-88
2021/12/03 07:37:28;;;;;;;12.85;3.75;;;-8.80;99.90;;;;;;5026196;28;20578;-88
2021/12/03 07:40:00;;;;;;;6.72;3.95;;;-6.60;99.90;;;;;;5023033;28;20045;-88
2021/12/03 07:42:46;;;;;;;10.50;3.97;;;-8.70;99.90;;;;;;5012126;28;20489;-83
2021/12/03 07:46:22;;;;;;;;;;;;;;;;;;;;;
2021/12/03 07:49:39;;;;;;;;;;;;;;;;;;;;;
2021/12/03 07:52:21;;;;;;;5.22;3.05;;;-9.60;99.90;;;;;;5027814;28;20064;-82
2021/12/03 07:55:02;;;;;;;;;;;;;;;;;;;;;
2021/12/03 07:57:55;;;;;;;11.10;3.70;;;-7.10;99.90;;;;;;5014442;28;20057;-84
2021/12/03 08:01:16;;;;;;;8.13;3.92;;;-8.50;99.90;;;;;;5000796;28;20041;-83
2021/12/03 08:04:19;;;;;;;;;;;;;;;;;;;;;
2021/12/03 08:06:57;;;;;;;8.20;4.18;;;-7.70;99.90;;;;;;5023018;28;20048;-83
2021/12/03 08:09:48;;;;;;;8.18;4.65;;;-7.60;99.90;;;;;;5026239;28;20061;-82
2021/12/03 08:12:51;;;;;;;;;;;;;;;;;;;;;
2021/12/03 08:15:36;;;;;;;7.47;3.83;;;-7.30;99.90;;;;;;5030672;28;20072;-82
2021/12/03 08:22:20;;;;;;;;;;;;;;;;;;;;;
2021/12/03 08:25:33;;;;;;;;;;;;;;;;;;;;;
2021/12/03 08:28:32;;;;;;;8.23;4.22;;;-5.80;99.90;;;;;;4987774;28;20072;-89
2021/12/03 08:31:18;;;;;;;8.68;4.20;;;-5.70;99.90;;;;;;5030630;28;20452;-88
2021/12/03 08:34:12;;;;;;;9.13;3.90;;;-5.60;99.90;;;;;;5029449;28;20053;-87
2021/12/03 08:37:09;;;;;;;9.50;3.90;;;-5.50;99.90;;;;;;5016050;28;20061;-88
2021/12/03 08:39:49;;;;;;;8.38;3.67;;;-6.60;99.90;;;;;;5028077;28;20431;-87
2021/12/03 08:42:29;;;;;;;14.40;5.40;;;-6.10;99.90;;;;;;5026846;28;20058;-88
2021/12/03 08:45:04;;;;;;;9.77;4.65;;;-6.80;99.90;;;;;;5007641;28;20049;-88
2021/12/03 08:47:32;;;;;;;11.13;4.18;;;-7.10;99.90;;;;;;5009176;28;20194;-87
2021/12/03 08:50:01;;;;;;;8.25;3.58;;;-7.20;99.90;;;;;;5034149;28;20651;-86
2021/12/03 08:52:45;;;;;;;8.07;3.53;;;-7.20;99.90;;;;;;5032455;28;20147;-87
2021/12/03 08:55:14;;;;;;;8.88;3.55;;;-6.80;99.90;;;;;;5031749;28;20053;-88
2021/12/03 08:58:19;;;;;;;11.18;3.72;;;-6.80;99.90;;;;;;5011632;28;20061;-85
2021/12/03 09:01:45;;;;;;;8.77;3.70;;;-6.20;99.90;;;;;;5013772;28;20049;-86
2021/12/03 09:04:16;;;;;;;5.20;3.13;;;-4.80;99.90;;;;;;5029544;28;20065;-90
2021/12/03 09:06:47;;;;;;;8.93;3.33;;;-6.50;99.90;;;;;;5032205;28;20053;-90
2021/12/03 09:09:15;;;;;;;5.93;3.20;;;-6.80;99.90;;;;;;5014110;28;20180;-88
2021/12/03 09:11:43;;;;;;;9.00;3.35;;;-6.40;99.90;;;;;;5013100;28;20041;-90
2021/12/03 09:14:17;;;;;;;5.88;2.95;;;-6.90;99.90;;;;;;5011887;28;20048;-85
2021/12/03 09:16:49;;;;;;;6.25;2.90;;;-4.70;99.90;;;;;;5029027;28;20056;-88
2021/12/03 09:19:22;;;;;;;;;;;-7.10;99.90;;;;;;5028927;28;20132;-88
2021/12/03 09:21:50;;;;;;;3.00;2.10;;;-5.60;99.90;;;;;;5011148;28;20312;-87
2021/12/03 09:24:26;;;;;;;6.97;3.25;;;-6.50;99.90;;;;;;5010654;28;20453;-88
2021/12/03 09:26:54;;;;;;;3.97;2.30;;;-6.50;99.90;;;;;;5029524;28;20057;-88
2021/12/03 09:29:28;;;;;;;6.97;2.83;;;-4.20;99.90;;;;;;5028813;28;20412;-87
2021/12/03 09:31:57;;;;;;;5.57;2.78;;;-6.20;99.90;;;;;;5013008;28;20121;-87
2021/12/03 09:34:28;;;;;;;6.85;2.72;;;-6.80;99.90;;;;;;5039904;28;20052;-87
2021/12/03 09:36:56;;;;;;;7.93;2.95;;;-6.80;99.90;;;;;;5038536;28;20049;-88
2021/12/03 09:39:25;;;;;;;7.20;2.58;;;-7.40;99.90;;;;;;5040012;28;20416;-83
2021/12/03 09:41:55;;;;;;;3.78;2.15;;;-6.50;99.90;;;;;;5032701;28;20050;-89
2021/12/03 09:44:25;;;;;;;8.70;3.30;;;-5.90;99.90;;;;;;5028855;28;20058;-91
2021/12/03 09:46:53;;;;;;;5.10;2.80;;;-6.00;99.90;;;;;;5020515;28;20103;-88
2021/12/03 09:49:32;;;;;;;6.75;2.70;;;-5.10;99.90;;;;;;5009921;28;20049;-89
2021/12/03 09:52:08;;;;;;;4.22;2.67;;;-6.20;99.90;;;;;;5000465;28;20057;-84
2021/12/03 09:54:42;;;;;;;5.60;2.47;;;-6.30;99.90;;;;;;5025713;28;20085;-85
2021/12/03 09:57:15;;;;;;;8.68;7.00;;;-6.20;99.90;;;;;;5026930;28;20037;-84
2021/12/03 10:00:08;;;;;;;4.25;3.55;;;-6.20;99.90;;;;;;5025651;28;20067;-84
2021/12/03 10:02:58;;;;;;;5.13;3.05;;;-5.70;99.90;;;;;;5027434;28;20054;-83
2021/12/03 10:14:30;;;;;;;3.38;2.25;;;-6.00;99.90;;;;;;5013142;28;20056;-85
2021/12/03 10:20:14;;;;;;;2.97;2.28;;;-4.20;99.90;;;;;;5006825;28;20064;-86
2021/12/03 10:29:28;;;;;;;2.47;1.75;;;-3.20;99.90;;;;;;5023611;28;20116;-86
2021/12/03 10:36:03;;;;;;;3.92;2.55;;;-3.80;99.90;;;;;;5004114;28;20046;-83
2021/12/03 10:41:31;;;;;;;4.18;2.35;;;-5.20;99.90;;;;;;5034208;28;20579;-84
2021/12/03 10:44:12;;;;;;;3.58;2.50;;;-5.40;99.90;;;;;;5038447;28;20045;-84
2021/12/03 10:46:51;;;;;;;2.40;2.08;;;-4.20;99.90;;;;;;5030778;28;20049;-83
2021/12/03 10:49:30;;;;;;;2.80;2.30;;;-3.30;99.90;;;;;;5031671;28;20509;-83
2021/12/03 10:52:16;;;;;;;1.88;1.73;;;-5.20;99.90;;;;;;5019570;28;20054;-86
2021/12/03 12:03:03;;;;;;;9.13;4.10;;;-5.10;99.90;;;;;;5016025;28;20049;-84
2021/12/03 12:44:53;;;;;;;20.40;8.05;;;-3.40;99.90;;;;;;5064376;28;20067;-86
2021/12/03 13:11:01;;;;;;;14.20;6.55;;;-4.00;99.90;;;;;;5122061;28;20095;-86
2021/12/03 13:13:45;;;;;;;15.73;5.95;;;-4.20;99.90;;;;;;5105592;28;20300;-82
2021/12/03 13:19:32;;;;;;;13.70;7.10;;;-4.40;99.90;;;;;;5120114;28;20053;-83
2021/12/03 14:02:01;;;;;;;16.20;5.78;;;-4.10;99.90;;;;;;5111160;28;20043;-83
2021/12/03 14:05:09;;;;;;;17.05;6.40;;;-2.80;99.90;;;;;;5108698;27;20495;-83
2021/12/03 14:39:41;;;;;;;8.32;4.43;;;-4.50;99.90;;;;;;5075772;28;20059;-88
2021/12/03 14:57:29;;;;;;;7.68;3.03;;;-0.90;99.90;;;;;;5101913;28;20047;-86
2021/12/03 15:01:13;;;;;;;7.68;3.33;;;-3.80;99.90;;;;;;5107201;28;20043;-87
2021/12/03 15:07:23;;;;;;;5.53;3.25;;;-3.20;99.90;;;;;;5133764;27;20036;-90
2021/12/03 15:09:59;;;;;;;7.47;3.70;;;-3.80;99.90;;;;;;5100315;28;20044;-85
2021/12/03 15:21:37;;;;;;;4.60;2.88;;;-3.00;99.90;;;;;;5094433;28;20043;-86
2021/12/03 15:27:07;;;;;;;6.07;3.58;;;-3.30;99.90;;;;;;5099453;28;20052;-84
2021/12/03 15:32:54;;;;;;;3.72;2.20;;;-4.80;99.90;;;;;;5093703;28;20093;-85
2021/12/03 15:35:32;;;;;;;9.48;3.13;;;-4.20;99.90;;;;;;5085279;28;20052;-86
2021/12/03 15:58:21;;;;;;;7.28;3.00;;;-2.50;99.90;;;;;;5084475;28;20055;-88
2021/12/03 16:04:10;;;;;;;8.52;3.25;;;-4.40;99.90;;;;;;5091476;28;20288;-84
2021/12/03 16:07:02;;;;;;;9.23;3.13;;;-4.20;99.90;;;;;;5086812;28;20397;-83
2021/12/03 16:10:14;;;;;;;3.80;2.65;;;-3.30;99.90;;;;;;5073190;28;20052;-88
2021/12/03 16:13:01;;;;;;;8.35;3.08;;;-2.70;99.90;;;;;;5105778;28;20117;-86
2021/12/03 16:19:16;;;;;;;7.55;3.47;;;-4.60;99.90;;;;;;5091397;28;20044;-85
2021/12/03 16:22:01;;;;;;;8.10;3.13;;;-5.00;99.90;;;;;;5084776;28;20079;-85
2021/12/03 16:25:37;;;;;;;9.13;3.30;;;-5.00;99.90;;;;;;5088284;28;20108;-86
2021/12/03 16:54:08;;;;;;;5.80;2.10;;;-4.30;99.90;;;;;;3238539;23;20511;-90
2021/12/03 16:56:51;;;;;;;3.58;1.95;;;-2.70;99.90;;;;;;4890978;29;20044;-89
2021/12/03 16:59:40;;;;;;;8.45;2.83;;;-3.00;99.90;;;;;;4883928;29;20048;-88
2021/12/03 17:02:24;;;;;;;5.78;3.00;;;-5.00;99.90;;;;;;4900820;29;20061;-87
2021/12/03 17:08:40;;;;;;;3.58;2.38;;;-2.60;99.90;;;;;;4843564;29;20068;-87
2021/12/03 17:12:07;;;;;;;6.20;2.70;;;-3.30;99.90;;;;;;4840122;29;20060;-84
2021/12/03 17:14:57;;;;;;;3.58;2.30;;;-2.60;99.90;;;;;;4893055;29;20076;-85
2021/12/03 17:44:37;;;;;;;3.38;2.40;;;-4.80;99.90;;;;;;4935477;29;20118;-87
2021/12/03 17:55:57;;;;;;;4.55;2.40;;;-5.40;99.90;;;;;;4889278;29;20056;-84
2021/12/03 17:58:24;;;;;;;5.35;2.00;;;-4.50;99.90;;;;;;4955270;28;20139;-84
2021/12/03 18:00:59;;;;;;;2.95;2.05;;;-4.90;99.90;;;;;;4955993;28;20053;-82
2021/12/03 18:03:51;;;;;;;4.28;2.22;;;-4.90;99.90;;;;;;4955222;28;20142;-84
2021/12/03 18:52:50;;;;;;;3.05;1.85;;;-5.00;99.90;;;;;;4819194;29;20078;-85
2021/12/03 18:56:43;;;;;;;7.22;2.35;;;-5.30;99.90;;;;;;4901289;29;20059;-87
2021/12/03 19:03:14;;;;;;;9.90;3.08;;;-3.80;99.90;;;;;;4876876;29;20067;-86
2021/12/03 19:06:19;;;;;;;3.05;1.90;;;-2.80;99.90;;;;;;4909250;29;20083;-84
2021/12/03 19:09:16;;;;;;;6.22;2.15;;;-4.00;99.90;;;;;;4932060;29;20618;-85
2021/12/03 19:12:04;;;;;;;12.63;2.53;;;-4.10;99.90;;;;;;4918086;29;20063;-83
2021/12/03 19:18:44;;;;;;;4.57;2.50;;;-4.70;99.90;;;;;;4935295;29;20366;-86
2021/12/03 19:21:48;;;;;;;3.58;2.40;;;-4.00;99.90;;;;;;4936268;29;20530;-82
2021/12/03 19:24:46;;;;;;;4.93;2.47;;;-4.90;99.90;;;;;;4924077;29;20063;-84
2021/12/03 19:28:01;;;;;;;3.75;2.60;;;-4.60;99.90;;;;;;4916511;29;20551;-84
2021/12/03 19:30:37;;;;;;;2.55;2.00;;;-2.20;99.90;;;;;;4927022;29;20111;-82
2021/12/03 19:33:07;;;;;;;3.25;1.98;;;-4.90;99.90;;;;;;4929582;29;20058;-81
2021/12/03 19:35:37;;;;;;;4.15;2.55;;;-3.00;99.90;;;;;;4928077;29;20449;-80
2021/12/03 19:38:05;;;;;;;4.97;2.65;;;-4.10;99.90;;;;;;4929644;29;20079;-81
2021/12/03 19:40:36;;;;;;;2.90;2.45;;;-4.50;99.90;;;;;;4928366;29;20048;-83
2021/12/03 19:43:11;;;;;;;3.20;1.70;;;-4.60;99.90;;;;;;4927672;29;20038;-80
2021/12/03 19:45:49;;;;;;;4.05;2.47;;;-4.40;99.90;;;;;;4929868;29;20420;-83
2021/12/03 19:48:17;;;;;;;5.53;3.60;;;-2.30;99.90;;;;;;4928277;29;20044;-82
2021/12/03 19:50:58;;;;;;;4.75;3.03;;;-2.60;99.90;;;;;;4930408;29;20051;-81
2021/12/03 19:54:01;;;;;;;3.53;2.58;;;-4.90;99.90;;;;;;4931326;29;20047;-81
2021/12/03 19:56:46;;;;;;;5.40;3.00;;;-4.20;99.90;;;;;;4930329;29;20059;-82
2021/12/03 19:59:22;;;;;;;;;;;-3.80;99.90;;;;;;4931078;29;20087;-80
2021/12/03 20:02:19;;;;;;;;;;;;;;;;;;;;;
2021/12/03 20:05:17;;;;;;;4.25;2.78;;;-3.60;99.90;;;;;;4948897;29;20393;-85
2021/12/03 20:08:20;;;;;;;3.30;2.67;;;-3.90;99.90;;;;;;4932251;29;20193;-82
2021/12/03 20:10:51;;;;;;;6.72;2.88;;;-4.20;99.90;;;;;;4929157;29;20062;-82
2021/12/03 20:13:48;;;;;;;;;;;;;;;;;;;;;
2021/12/03 20:16:28;;;;;;;3.97;2.20;;;-5.00;99.90;;;;;;4928670;29;20071;-83
2021/12/03 20:19:06;;;;;;;3.97;2.67;;;-4.20;99.90;;;;;;4930466;29;20066;-84
2021/12/03 20:21:40;;;;;;;3.55;2.22;;;-4.40;99.90;;;;;;4916274;29;20043;-82
2021/12/03 20:24:25;;;;;;;3.35;2.38;;;-3.70;99.90;;;;;;4931528;29;20484;-82
2021/12/03 20:26:55;;;;;;;3.63;2.38;;;-2.20;99.90;;;;;;4923515;29;20058;-83
2021/12/03 20:29:38;;;;;;;7.72;2.88;;;-4.30;99.90;;;;;;4933432;29;20055;-83
2021/12/03 20:32:20;;;;;;;3.70;2.47;;;-3.80;99.90;;;;;;4932741;29;20424;-82